Time;durP1;ratioP1;P1;durP2;ratioP2;P2;SDS_P1;SDS_P2;PMS_P1;PMS_P2;Temp;Humidity;BMP_temperature;BMP_pressure;BME280_temperature;BME280_humidity;BME280_pressure;Samples;Min_cycle;Max_cycle;Signal;HPM_P1;HPM_P2
2022/03/25 00:00:56;;;;;;;32.40;14.10;;;;;;;1.66;54.72;100138.03;5073246;28;20296;-78
2022/03/25 00:03:23;;;;;;;39.15;14.40;;;;;;;1.66;54.71;100132.91;5072817;28;20139;-79
2022/03/25 00:05:50;;;;;;;35.92;13.70;;;;;;;1.62;54.56;100122.47;5071905;28;20500;-80
2022/03/25 00:08:17;;;;;;;40.47;13.68;;;;;;;1.42;54.51;100097.56;5076065;28;20063;-79
2022/03/25 00:10:44;;;;;;;38.50;14.65;;;;;;;1.64;54.44;100135.44;5074947;28;20052;-77
2022/03/25 00:13:12;;;;;;;42.83;15.27;;;;;;;1.58;54.61;100130.00;5075472;28;20068;-79
2022/03/25 00:15:39;;;;;;;36.72;15.00;;;;;;;1.59;54.80;100129.19;5080689;28;20043;-78
2022/03/25 00:18:06;;;;;;;38.72;14.75;;;;;;;1.57;54.95;100117.94;5097540;28;20037;-78
2022/03/25 00:20:34;;;;;;;36.95;14.85;;;;;;;1.54;55.33;100123.84;5083242;28;20106;-78
2022/03/25 00:23:01;;;;;;;34.95;14.48;;;;;;;1.50;55.17;100116.78;5072661;28;20058;-78
2022/03/25 00:25:29;;;;;;;43.13;15.68;;;;;;;1.44;55.41;100111.38;5072224;28;20525;-78
2022/03/25 00:27:56;;;;;;;40.03;15.35;;;;;;;1.48;55.29;100117.53;5072247;28;20072;-77
2022/03/25 00:30:23;;;;;;;38.40;15.23;;;;;;;1.52;55.31;100124.59;5071820;28;20498;-78
2022/03/25 00:32:50;;;;;;;39.03;14.68;;;;;;;1.32;55.23;100096.28;5071086;28;20056;-79
2022/03/25 00:35:18;;;;;;;39.67;15.30;;;;;;;1.43;55.59;100114.75;5056119;28;20515;-78
2022/03/25 00:37:44;;;;;;;40.63;16.50;;;;;;;1.47;55.37;100118.38;5071114;28;20535;-77
2022/03/25 00:40:12;;;;;;;51.50;16.25;;;;;;;1.49;55.73;100109.00;5075666;28;20056;-80
2022/03/25 00:42:39;;;;;;;43.30;15.48;;;;;;;0.81;55.73;100018.53;5075603;28;20052;-80
2022/03/25 00:45:07;;;;;;;40.00;15.43;;;;;;;1.44;55.85;100124.22;5074363;28;20041;-80
2022/03/25 00:47:36;;;;;;;38.00;14.85;;;;;;;1.24;55.97;100084.75;5075515;28;20139;-79
2022/03/25 00:50:03;;;;;;;32.22;13.77;;;;;;;1.27;56.35;100092.63;5074549;28;20084;-79
2022/03/25 00:52:30;;;;;;;31.63;14.20;;;;;;;1.29;56.07;100111.59;5075483;28;20052;-81
2022/03/25 00:54:58;;;;;;;34.65;15.35;;;;;;;1.22;56.16;100091.53;5074238;28;20049;-78
2022/03/25 00:57:25;;;;;;;38.17;14.90;;;;;;;1.10;56.23;100070.38;5074240;28;20060;-78
2022/03/25 00:59:55;;;;;;;36.97;15.48;;;;;;;1.21;56.26;100102.66;5075723;28;20049;-78
2022/03/25 01:02:22;;;;;;;33.53;14.02;;;;;;;1.19;56.15;100107.72;5075314;28;20049;-78
2022/03/25 01:04:50;;;;;;;32.60;13.60;;;;;;;1.26;56.25;100114.00;5074613;28;20045;-78
2022/03/25 01:07:19;;;;;;;34.28;13.77;;;;;;;1.12;56.42;100077.38;5075560;28;20048;-79
2022/03/25 01:09:46;;;;;;;28.90;14.05;;;;;;;1.26;56.58;100116.59;5075524;28;20082;-80
2022/03/25 01:12:13;;;;;;;38.72;14.35;;;;;;;1.16;56.45;100096.41;5075158;28;20063;-79
2022/03/25 01:14:40;;;;;;;39.42;15.65;;;;;;;1.23;56.51;100103.59;5073998;28;20422;-79
2022/03/25 01:17:14;;;;;;;34.28;13.23;;;;;;;1.23;56.75;100116.47;5075558;28;20048;-80
2022/03/25 01:19:41;;;;;;;35.13;13.07;;;;;;;1.21;56.82;100107.78;5073940;28;20052;-79
2022/03/25 01:22:08;;;;;;;39.40;13.45;;;;;;;1.02;56.79;100072.63;5074925;28;20055;-79
2022/03/25 01:24:35;;;;;;;37.80;14.05;;;;;;;1.13;57.03;100109.13;5075001;28;20048;-79
2022/03/25 01:27:04;;;;;;;31.35;13.15;;;;;;;1.06;56.94;100095.13;5072018;28;20537;-79
2022/03/25 01:29:30;;;;;;;39.58;14.20;;;;;;;1.10;56.79;100083.25;5055274;28;20103;-78
2022/03/25 01:31:59;;;;;;;33.20;13.25;;;;;;;1.12;56.76;100085.09;5064594;28;20044;-80
2022/03/25 01:34:26;;;;;;;32.42;13.88;;;;;;;0.92;57.12;100060.16;5075205;28;20049;-80
2022/03/25 01:36:54;;;;;;;37.88;15.25;;;;;;;1.10;57.08;100088.41;5075148;28;20075;-81
2022/03/25 01:39:20;;;;;;;38.03;13.77;;;;;;;1.09;56.93;100094.38;5074852;28;20055;-80
2022/03/25 01:41:48;;;;;;;35.35;13.88;;;;;;;1.07;56.97;100083.13;5074698;28;20060;-80
2022/03/25 01:44:23;;;;;;;35.47;15.07;;;;;;;1.09;56.98;100100.38;5075265;28;20079;-78
2022/03/25 01:46:50;;;;;;;31.52;14.60;;;;;;;1.08;57.38;100100.34;5073161;28;20468;-78
2022/03/25 01:49:18;;;;;;;31.05;14.70;;;;;;;1.12;57.25;100117.66;5073335;28;20056;-78
2022/03/25 01:51:48;;;;;;;41.35;15.32;;;;;;;1.16;57.36;100107.59;5074705;28;20052;-78
2022/03/25 01:54:28;;;;;;;34.75;14.30;;;;;;;0.86;57.36;100062.44;5074532;28;20052;-79
2022/03/25 01:57:00;;;;;;;37.22;13.07;;;;;;;1.06;57.36;100101.97;5074556;28;20139;-79
2022/03/25 01:59:29;;;;;;;31.88;13.00;;;;;;;0.99;57.51;100088.81;5074459;28;20128;-79
2022/03/25 02:01:56;;;;;;;37.22;14.07;;;;;;;1.15;57.73;100110.09;5074442;28;20520;-79
2022/03/25 02:04:25;;;;;;;32.45;14.65;;;;;;;1.09;57.08;100089.22;5075133;28;20056;-79
2022/03/25 02:06:53;;;;;;;36.30;13.73;;;;;;;1.01;57.43;100071.75;5074827;28;20053;-78
2022/03/25 02:09:21;;;;;;;31.85;12.90;;;;;;;1.31;56.93;100124.50;5074040;28;20170;-80
2022/03/25 02:11:48;;;;;;;34.50;12.32;;;;;;;1.38;56.79;100118.84;5073368;28;20060;-80
2022/03/25 02:14:19;;;;;;;30.77;12.88;;;;;;;1.43;56.61;100130.22;5073672;28;20075;-80
2022/03/25 02:16:48;;;;;;;34.80;13.27;;;;;;;1.11;56.05;100057.59;5072798;28;20556;-79
2022/03/25 02:19:18;;;;;;;37.78;15.13;;;;;;;1.43;56.12;100118.22;5069210;28;20053;-80
2022/03/25 02:21:49;;;;;;;32.30;12.65;;;;;;;1.29;55.95;100077.22;5044357;28;20060;-79
2022/03/25 02:24:23;;;;;;;33.58;12.80;;;;;;;1.28;55.62;100075.47;5047494;28;20111;-80
2022/03/25 02:26:51;;;;;;;32.47;13.50;;;;;;;1.53;55.67;100119.50;5061621;28;20045;-78
2022/03/25 02:29:19;;;;;;;30.55;14.07;;;;;;;1.58;55.57;100128.31;5061829;28;20052;-80
2022/03/25 02:31:47;;;;;;;31.75;14.27;;;;;;;1.53;56.14;100128.94;5043937;28;20060;-78
2022/03/25 02:34:14;;;;;;;31.88;14.55;;;;;;;1.46;56.19;100124.31;5042604;28;20061;-80
2022/03/25 02:36:46;;;;;;;35.58;14.10;;;;;;;1.37;56.27;100115.38;5061988;28;20044;-79
2022/03/25 02:39:15;;;;;;;33.50;13.13;;;;;;;1.34;56.49;100116.94;5011117;28;20044;-81
2022/03/25 02:41:45;;;;;;;33.70;12.65;;;;;;;1.40;56.41;100136.13;5066486;28;20144;-80
2022/03/25 02:44:12;;;;;;;30.45;12.27;;;;;;;1.31;56.65;100140.84;5065886;28;20103;-80
2022/03/25 02:46:43;;;;;;;29.15;12.82;;;;;;;1.34;56.47;100142.69;5067156;28;20441;-80
2022/03/25 02:49:11;;;;;;;30.50;12.73;;;;;;;1.14;56.59;100111.78;5086413;28;20045;-80
2022/03/25 02:51:38;;;;;;;33.25;12.68;;;;;;;1.20;56.48;100139.47;5074288;28;20045;-82
2022/03/25 02:54:05;;;;;;;33.80;13.32;;;;;;;1.29;56.84;100154.44;5074475;28;20045;-81
2022/03/25 02:56:33;;;;;;;34.67;13.77;;;;;;;1.32;56.53;100149.44;5067860;28;20073;-81
2022/03/25 02:59:00;;;;;;;39.15;13.15;;;;;;;1.37;56.63;100145.38;5063930;28;20044;-81
2022/03/25 03:01:27;;;;;;;32.80;13.13;;;;;;;0.99;56.12;100081.09;5069534;28;20135;-81
2022/03/25 03:03:54;;;;;;;30.20;13.13;;;;;;;1.27;56.17;100127.75;5073567;28;20139;-81
2022/03/25 03:06:21;;;;;;;33.08;12.85;;;;;;;1.18;56.15;100111.13;5071632;28;20044;-81
2022/03/25 03:08:48;;;;;;;33.13;13.93;;;;;;;1.40;55.88;100150.69;5073660;28;20048;-81
2022/03/25 03:11:16;;;;;;;32.17;14.50;;;;;;;0.70;55.90;100017.19;5073277;28;20094;-81
2022/03/25 03:13:44;;;;;;;31.63;12.82;;;;;;;1.23;55.64;100101.03;5073251;28;20044;-81
2022/03/25 03:16:11;;;;;;;32.08;12.98;;;;;;;1.25;55.64;100095.91;5073087;28;20060;-80
2022/03/25 03:18:38;;;;;;;34.08;13.80;;;;;;;1.56;55.80;100152.22;5071950;28;20135;-80
2022/03/25 03:21:05;;;;;;;37.80;14.25;;;;;;;1.48;55.53;100136.44;5073355;28;20509;-80
2022/03/25 03:23:32;;;;;;;39.97;14.85;;;;;;;1.64;55.44;100162.06;5072983;28;20102;-81
2022/03/25 03:25:59;;;;;;;37.80;13.60;;;;;;;1.58;55.47;100141.19;5073103;28;20078;-80
2022/03/25 03:28:26;;;;;;;37.75;13.68;;;;;;;1.77;54.75;100160.03;5073212;28;20421;-81
2022/03/25 03:30:55;;;;;;;35.08;14.02;;;;;;;1.86;54.72;100162.97;5072739;28;20118;-82
2022/03/25 03:33:23;;;;;;;36.83;12.68;;;;;;;1.92;54.42;100160.69;5044387;28;20067;-82
2022/03/25 03:35:50;;;;;;;34.28;13.13;;;;;;;2.01;54.09;100162.75;5052078;28;20049;-82
2022/03/25 03:38:17;;;;;;;32.13;13.02;;;;;;;2.03;53.47;100146.53;5053087;28;20068;-79
2022/03/25 03:40:44;;;;;;;33.15;13.40;;;;;;;2.04;53.71;100139.69;5052525;28;20518;-79
2022/03/25 03:43:11;;;;;;;42.45;13.88;;;;;;;1.74;53.42;100069.72;5051664;28;20053;-80
2022/03/25 03:45:38;;;;;;;34.80;13.48;;;;;;;2.28;53.47;100149.25;5052775;28;20055;-81
2022/03/25 03:48:05;;;;;;;35.90;13.07;;;;;;;2.33;53.36;100147.75;5052702;28;20402;-81
2022/03/25 03:50:31;;;;;;;36.72;14.52;;;;;;;2.13;53.30;100114.31;5055905;28;20044;-82
2022/03/25 03:52:58;;;;;;;35.80;13.95;;;;;;;2.46;53.10;100170.66;5071353;28;20052;-81
2022/03/25 03:55:25;;;;;;;42.17;14.95;;;;;;;2.45;53.16;100143.09;5072050;28;20056;-81
2022/03/25 03:57:52;;;;;;;42.58;15.98;;;;;;;2.62;53.04;100151.50;5073925;28;20426;-82
2022/03/25 04:00:20;;;;;;;46.33;16.85;;;;;;;2.63;53.16;100145.53;5074022;28;20079;-82
2022/03/25 04:02:47;;;;;;;40.85;14.68;;;;;;;2.77;53.05;100158.97;5058773;28;20041;-79
2022/03/25 04:05:14;;;;;;;46.95;14.90;;;;;;;2.60;52.98;100106.72;5052480;28;20053;-77
2022/03/25 04:07:42;;;;;;;40.20;15.13;;;;;;;2.89;52.78;100161.16;5052727;28;20052;-79
2022/03/25 04:10:09;;;;;;;40.70;16.92;;;;;;;2.75;52.91;100119.31;5053407;28;20079;-80
2022/03/25 04:12:37;;;;;;;39.35;16.20;;;;;;;2.53;52.96;100074.66;5054977;28;20048;-80
2022/03/25 04:15:05;;;;;;;42.60;15.60;;;;;;;2.79;52.60;100105.72;5063534;28;20049;-78
2022/03/25 04:17:33;;;;;;;38.95;17.35;;;;;;;3.18;53.09;100154.50;5076247;28;20094;-81
2022/03/25 04:20:00;;;;;;;36.53;14.90;;;;;;;3.17;52.69;100151.06;5071714;28;20502;-79
2022/03/25 04:22:27;;;;;;;43.67;16.13;;;;;;;3.16;52.95;100132.94;5062640;28;20056;-80
2022/03/25 04:24:55;;;;;;;37.40;17.00;;;;;;;3.33;52.61;100144.75;5055795;28;20437;-80
2022/03/25 04:27:23;;;;;;;36.83;16.40;;;;;;;3.46;52.47;100157.31;5061256;28;20057;-80
2022/03/25 04:29:50;;;;;;;41.13;17.33;;;;;;;3.59;52.21;100156.06;5061323;28;20110;-79
2022/03/25 04:32:17;;;;;;;37.00;15.85;;;;;;;3.71;52.07;100167.66;5058093;28;20491;-80
2022/03/25 04:34:44;;;;;;;39.10;16.73;;;;;;;3.79;52.10;100154.19;5055512;28;20052;-79
2022/03/25 04:37:11;;;;;;;39.50;17.92;;;;;;;3.73;52.18;100135.88;5060384;28;20406;-81
2022/03/25 04:39:42;;;;;;;47.33;18.15;;;;;;;3.78;51.91;100126.56;5074755;28;20053;-83
2022/03/25 04:42:14;;;;;;;39.75;16.23;;;;;;;3.47;52.05;100081.59;5058358;28;20090;-80
2022/03/25 04:44:41;;;;;;;44.35;16.52;;;;;;;4.04;51.69;100142.09;5075180;28;20437;-80
2022/03/25 04:47:08;;;;;;;45.75;17.02;;;;;;;4.19;51.88;100146.91;5068574;28;20059;-83
2022/03/25 04:49:36;;;;;;;46.38;16.30;;;;;;;4.05;51.67;100100.78;5064135;28;20049;-79
2022/03/25 04:52:03;;;;;;;40.05;17.17;;;;;;;4.44;51.27;100153.78;5064275;28;20056;-80
2022/03/25 04:54:30;;;;;;;51.47;18.73;;;;;;;4.51;51.23;100137.63;5067127;28;20077;-82
2022/03/25 04:56:57;;;;;;;48.20;18.77;;;;;;;4.67;51.01;100149.34;5063898;28;20063;-80
2022/03/25 04:59:24;;;;;;;46.75;18.90;;;;;;;4.79;50.59;100151.44;5072724;28;20052;-80
2022/03/25 05:01:51;;;;;;;45.72;18.02;;;;;;;4.79;50.21;100133.31;5085729;28;20086;-82
2022/03/25 05:04:18;;;;;;;45.15;17.52;;;;;;;4.85;50.85;100146.44;5076392;28;20064;-80
2022/03/25 05:06:45;;;;;;;41.22;17.15;;;;;;;5.03;50.71;100154.75;5066545;28;20513;-80
2022/03/25 05:09:13;;;;;;;46.50;18.25;;;;;;;4.99;50.43;100132.22;5067211;28;20398;-81
2022/03/25 05:11:40;;;;;;;56.92;18.10;;;;;;;4.90;50.42;100101.75;5065747;28;20093;-81
2022/03/25 05:14:07;;;;;;;52.50;18.67;;;;;;;5.32;50.39;100155.63;5065674;28;20430;-80
2022/03/25 05:16:34;;;;;;;58.03;20.35;;;;;;;5.47;50.00;100141.38;5067577;28;20060;-81
2022/03/25 05:19:02;;;;;;;52.40;19.92;;;;;;;5.40;49.27;100116.13;5066221;28;20516;-80
2022/03/25 05:21:29;;;;;;;65.05;22.60;;;;;;;5.69;49.04;100159.28;5072874;28;20053;-81
2022/03/25 05:23:56;;;;;;;53.40;20.33;;;;;;;5.77;48.77;100156.03;5079732;28;20048;-80
2022/03/25 05:26:23;;;;;;;62.30;20.10;;;;;;;5.74;49.14;100126.59;5065764;28;20059;-80
2022/03/25 05:28:50;;;;;;;66.55;21.25;;;;;;;5.96;48.38;100150.53;5061693;28;20494;-80
2022/03/25 05:31:17;;;;;;;56.03;22.13;;;;;;;6.08;48.11;100152.56;5060710;28;20068;-81
2022/03/25 05:33:44;;;;;;;62.22;22.20;;;;;;;6.24;48.08;100153.81;5053701;28;20049;-79
2022/03/25 05:36:11;;;;;;;55.95;20.48;;;;;;;6.08;47.24;100111.06;5056742;28;20053;-80
2022/03/25 05:38:39;;;;;;;57.60;22.60;;;;;;;6.46;47.21;100157.84;5055248;28;20534;-79
2022/03/25 05:41:07;;;;;;;64.05;22.10;;;;;;;6.45;47.13;100141.38;5053374;28;20513;-80
2022/03/25 05:43:38;;;;;;;56.15;21.17;;;;;;;6.66;46.62;100134.97;5052830;28;20056;-80
2022/03/25 05:46:31;;;;;;;75.00;21.30;;;;;;;6.71;46.73;100151.50;5055049;28;20060;-82
2022/03/25 05:49:07;;;;;;;67.47;21.70;;;;;;;6.72;46.87;100158.47;5055132;28;20052;-80
2022/03/25 05:51:34;;;;;;;72.43;22.50;;;;;;;6.92;46.29;100172.78;5055164;28;20049;-80
2022/03/25 05:54:01;;;;;;;72.20;22.45;;;;;;;6.98;46.96;100172.94;5052889;28;20053;-79
2022/03/25 05:56:28;;;;;;;72.60;22.13;;;;;;;6.87;46.52;100130.25;5053750;28;20422;-79
2022/03/25 05:58:55;;;;;;;52.90;21.08;;;;;;;7.05;45.70;100147.97;5054763;28;20084;-79
2022/03/25 06:01:22;;;;;;;63.80;21.73;;;;;;;7.15;45.57;100167.25;5054340;28;20510;-80
2022/03/25 06:03:49;;;;;;;52.88;20.70;;;;;;;7.17;44.55;100119.66;5055326;28;20090;-80
2022/03/25 06:06:16;;;;;;;49.70;19.60;;;;;;;7.64;44.07;100170.03;5055125;28;20494;-80
2022/03/25 06:08:49;;;;;;;62.20;21.50;;;;;;;7.75;43.55;100182.38;5070478;28;20056;-82
2022/03/25 06:11:16;;;;;;;64.18;21.65;;;;;;;7.83;43.54;100179.03;5059351;28;20053;-81
2022/03/25 06:13:43;;;;;;;54.00;21.60;;;;;;;8.00;42.97;100162.91;5061817;28;20091;-80
2022/03/25 06:16:10;;;;;;;61.88;21.40;;;;;;;8.02;42.56;100162.06;5074078;28;20056;-80
2022/03/25 06:18:37;;;;;;;66.13;26.00;;;;;;;8.06;42.12;100184.69;5073093;28;20049;-80
2022/03/25 06:21:04;;;;;;;67.63;26.50;;;;;;;8.03;42.09;100187.25;5073959;28;20110;-80
2022/03/25 06:23:31;;;;;;;53.08;23.30;;;;;;;8.13;41.75;100184.84;5074563;28;20468;-80
2022/03/25 06:25:59;;;;;;;57.83;22.75;;;;;;;7.87;41.62;100139.22;5073063;28;20052;-83
2022/03/25 06:28:26;;;;;;;55.88;23.63;;;;;;;8.14;41.16;100198.72;5074526;28;20446;-80
2022/03/25 06:30:53;;;;;;;55.92;24.10;;;;;;;8.21;41.01;100177.16;5073914;28;20068;-79
2022/03/25 06:33:20;;;;;;;46.33;21.52;;;;;;;8.34;40.29;100188.66;5074207;28;20063;-79
2022/03/25 06:35:48;;;;;;;47.55;20.38;;;;;;;8.38;40.43;100186.13;5073395;28;20105;-79
2022/03/25 06:38:15;;;;;;;50.03;21.73;;;;;;;8.52;39.87;100177.75;5074252;28;20146;-79
2022/03/25 06:40:42;;;;;;;47.85;21.70;;;;;;;8.58;39.77;100181.31;5078699;28;20060;-80
2022/03/25 06:43:09;;;;;;;48.10;21.48;;;;;;;8.69;39.17;100185.78;5075485;28;20056;-80
2022/03/25 06:45:36;;;;;;;51.75;21.42;;;;;;;8.72;39.23;100180.66;5073423;28;20045;-80
2022/03/25 06:48:03;;;;;;;48.08;21.88;;;;;;;8.81;39.06;100184.25;5073352;28;20045;-79
2022/03/25 06:50:31;;;;;;;33.97;16.65;;;;;;;8.85;38.26;100164.38;5073248;28;20090;-79
2022/03/25 06:53:01;;;;;;;44.58;19.08;;;;;;;8.95;37.76;100160.19;5073792;28;20084;-79
2022/03/25 06:55:30;;;;;;;41.60;17.65;;;;;;;9.10;38.07;100180.34;5072090;28;20060;-80
2022/03/25 06:57:57;;;;;;;41.03;17.10;;;;;;;9.16;37.58;100181.34;5073244;28;20098;-80
2022/03/25 07:00:24;;;;;;;45.40;19.63;;;;;;;9.16;37.21;100147.44;5073332;28;20064;-80
2022/03/25 07:02:53;;;;;;;34.88;17.50;;;;;;;9.45;36.77;100177.38;5075173;28;20121;-81
2022/03/25 07:05:29;;;;;;;37.33;17.42;;;;;;;9.49;36.67;100174.81;5075283;28;20105;-78
2022/03/25 07:07:58;;;;;;;37.10;18.00;;;;;;;9.57;36.19;100178.41;5073623;28;20074;-79
2022/03/25 07:10:26;;;;;;;33.75;16.92;;;;;;;9.59;36.21;100166.25;5073644;28;20056;-81
2022/03/25 07:12:54;;;;;;;34.05;15.82;;;;;;;9.72;35.25;100179.41;5074107;28;20057;-82
2022/03/25 07:15:22;;;;;;;43.30;17.33;;;;;;;9.77;35.58;100189.06;5073398;28;20102;-80
2022/03/25 07:17:52;;;;;;;40.22;16.85;;;;;;;9.84;35.76;100167.41;5072294;28;20471;-81
2022/03/25 07:20:21;;;;;;;39.45;17.75;;;;;;;10.10;35.66;100194.66;5073516;28;20105;-80
2022/03/25 07:22:50;;;;;;;38.40;16.48;;;;;;;10.21;34.59;100201.72;5072961;28;20040;-81
2022/03/25 07:25:19;;;;;;;35.85;17.27;;;;;;;10.20;34.67;100192.16;5072949;28;20445;-79
2022/03/25 07:27:47;;;;;;;31.58;15.30;;;;;;;10.18;34.77;100169.50;5067036;28;20493;-81
2022/03/25 07:30:16;;;;;;;33.25;16.38;;;;;;;10.50;34.70;100174.19;5036371;28;20057;-85
2022/03/25 07:32:43;;;;;;;31.50;15.55;;;;;;;10.55;34.07;100164.63;5033136;28;20057;-81
2022/03/25 07:35:10;;;;;;;32.38;15.45;;;;;;;10.54;34.06;100187.28;5031816;28;20057;-81
2022/03/25 07:37:39;;;;;;;31.00;15.50;;;;;;;10.50;33.93;100158.50;5031993;28;20053;-81
2022/03/25 07:40:09;;;;;;;33.90;15.98;;;;;;;10.52;33.42;100135.88;5016706;28;20057;-83
2022/03/25 07:42:37;;;;;;;31.83;16.30;;;;;;;10.69;33.39;100142.13;5033174;28;20415;-83
2022/03/25 07:45:10;;;;;;;34.28;15.55;;;;;;;10.86;33.58;100155.28;5032670;28;20049;-82
2022/03/25 07:47:48;;;;;;;31.70;15.65;;;;;;;10.89;33.41;100160.53;5034143;28;20045;-81
2022/03/25 07:50:18;;;;;;;32.25;16.77;;;;;;;11.09;32.88;100178.97;5038839;28;20103;-83
2022/03/25 07:52:46;;;;;;;32.28;16.25;;;;;;;11.40;32.58;100193.09;5038706;28;20064;-83
2022/03/25 07:55:15;;;;;;;38.60;15.98;;;;;;;11.50;32.05;100180.06;5042643;28;20084;-81
2022/03/25 07:57:43;;;;;;;37.03;16.00;;;;;;;11.58;32.82;100175.75;5061518;28;20033;-81
2022/03/25 08:00:13;;;;;;;29.25;15.32;;;;;;;11.76;32.71;100178.41;5057729;28;20289;-78
2022/03/25 08:02:42;;;;;;;35.00;15.77;;;;;;;11.78;32.04;100147.88;5037603;28;20064;-79
2022/03/25 08:05:10;;;;;;;32.38;15.98;;;;;;;11.90;32.39;100161.94;5037176;28;20446;-81
2022/03/25 08:07:47;;;;;;;30.88;16.23;;;;;;;11.80;31.98;100145.28;5037814;28;20053;-81
2022/03/25 08:10:32;;;;;;;37.67;15.80;;;;;;;11.74;32.23;100150.50;5040915;28;20526;-80
2022/03/25 08:13:01;;;;;;;31.33;15.27;;;;;;;12.16;31.57;100170.72;5036276;28;20053;-82
2022/03/25 08:15:30;;;;;;;29.70;14.77;;;;;;;12.16;31.07;100123.56;5057769;28;20112;-82
2022/03/25 08:18:00;;;;;;;27.90;14.85;;;;;;;12.31;30.73;100117.47;5046531;28;20064;-83
2022/03/25 08:20:33;;;;;;;28.33;15.18;;;;;;;12.67;30.56;100150.66;5045773;28;20212;-82
2022/03/25 08:23:01;;;;;;;31.52;15.27;;;;;;;12.67;30.36;100160.28;5045059;28;20064;-82
2022/03/25 08:28:16;;;;;;;27.98;14.95;;;;;;;12.97;29.76;100166.34;5036936;28;20141;-83
2022/03/25 08:30:45;;;;;;;26.92;15.57;;;;;;;13.00;29.84;100142.75;5037126;28;20469;-81
2022/03/25 08:33:12;;;;;;;35.72;15.50;;;;;;;13.11;29.77;100140.97;5036562;28;20056;-80
2022/03/25 08:35:42;;;;;;;37.58;16.98;;;;;;;13.16;29.67;100156.69;5036244;28;20057;-81
2022/03/25 08:38:09;;;;;;;36.53;16.57;;;;;;;13.09;29.63;100175.06;5019257;28;20088;-81
2022/03/25 08:40:38;;;;;;;32.70;16.30;;;;;;;12.98;29.88;100153.25;5036792;28;20061;-80
2022/03/25 08:43:26;;;;;;;33.10;17.23;;;;;;;12.81;29.72;100132.28;5037284;28;20049;-83
2022/03/25 08:45:53;;;;;;;33.42;16.58;;;;;;;12.58;30.14;100153.25;5039515;28;20068;-83
2022/03/25 08:48:20;;;;;;;31.35;16.88;;;;;;;12.39;30.69;100141.94;5037462;28;20080;-81
2022/03/25 08:50:47;;;;;;;41.97;17.48;;;;;;;12.41;30.95;100140.19;5018453;28;20080;-83
2022/03/25 08:53:15;;;;;;;38.42;19.55;;;;;;;12.34;31.42;100145.41;5043007;28;20057;-80
2022/03/25 08:55:43;;;;;;;47.88;20.73;;;;;;;12.42;31.79;100141.06;5063626;28;20136;-79
2022/03/25 08:58:10;;;;;;;48.47;23.98;;;;;;;12.35;32.16;100126.22;5041264;28;20076;-80
2022/03/25 09:00:38;;;;;;;48.22;25.60;;;;;;;12.46;32.49;100132.31;5040971;28;20115;-79
2022/03/25 09:03:05;;;;;;;55.70;26.98;;;;;;;12.14;32.82;100103.50;5063257;28;20053;-82
2022/03/25 09:05:33;;;;;;;56.10;26.98;;;;;;;12.20;33.20;100134.94;5076066;28;20099;-81
2022/03/25 09:08:01;;;;;;;55.05;27.27;;;;;;;11.96;33.41;100130.50;5055414;28;20053;-83
2022/03/25 09:10:28;;;;;;;63.75;34.80;;;;;;;11.81;33.90;100126.09;5056644;28;20498;-81
2022/03/25 09:12:55;;;;;;;68.07;29.00;;;;;;;11.86;33.95;100135.69;5062751;28;20087;-83
2022/03/25 09:15:22;;;;;;;62.08;28.83;;;;;;;11.68;34.17;100135.66;5077724;28;20406;-81
2022/03/25 09:17:49;;;;;;;53.28;27.73;;;;;;;11.60;34.64;100130.41;5076500;28;20051;-82
2022/03/25 09:20:19;;;;;;;54.13;27.70;;;;;;;11.60;34.62;100127.78;5077265;28;20074;-81
2022/03/25 09:22:48;;;;;;;50.65;27.67;;;;;;;11.60;34.66;100132.16;5063609;28;20060;-81
2022/03/25 09:25:15;;;;;;;56.55;29.13;;;;;;;11.68;34.26;100139.16;5055093;28;20067;-81
2022/03/25 09:27:42;;;;;;;53.38;27.95;;;;;;;11.81;34.32;100133.97;5054112;28;20055;-81
2022/03/25 09:30:13;;;;;;;52.65;28.00;;;;;;;11.92;34.35;100134.88;5037398;28;20388;-80
2022/03/25 09:33:00;;;;;;;59.53;31.50;;;;;;;12.17;33.82;100130.53;5054688;28;20102;-82
2022/03/25 09:35:32;;;;;;;49.90;28.55;;;;;;;12.30;33.75;100136.66;5055130;28;20087;-80
2022/03/25 09:37:59;;;;;;;60.97;28.52;;;;;;;11.83;33.52;100058.91;5054758;28;20049;-79
2022/03/25 09:40:27;;;;;;;49.92;28.35;;;;;;;12.18;33.75;100110.50;5053387;28;20053;-79
2022/03/25 09:42:58;;;;;;;49.70;27.90;;;;;;;12.28;33.43;100123.59;5053725;28;20091;-84
2022/03/25 09:45:26;;;;;;;51.95;27.45;;;;;;;12.37;33.79;100124.44;5022075;28;20423;-81
2022/03/25 09:48:02;;;;;;;39.92;21.65;;;;;;;12.52;32.69;100121.84;5054710;28;20060;-79
2022/03/25 09:50:31;;;;;;;37.50;20.50;;;;;;;12.59;32.11;100134.06;5054513;28;20049;-81
2022/03/25 09:52:58;;;;;;;41.22;20.65;;;;;;;12.58;31.49;100090.38;5053552;28;20060;-82
2022/03/25 09:55:46;;;;;;;38.60;20.98;;;;;;;12.66;31.51;100113.97;5055187;28;20053;-82
2022/03/25 09:58:22;;;;;;;37.72;19.85;;;;;;;12.88;30.89;100138.38;5056468;28;20053;-83
2022/03/25 10:00:51;;;;;;;38.13;21.58;;;;;;;12.89;30.91;100101.69;5056211;28;20053;-85
2022/03/25 10:03:30;;;;;;;44.42;22.98;;;;;;;13.08;30.85;100125.25;5055449;28;20052;-82
2022/03/25 10:05:59;;;;;;;41.67;21.92;;;;;;;12.83;30.78;100085.97;5054636;28;20400;-81
2022/03/25 10:08:43;;;;;;;41.10;21.90;;;;;;;13.18;30.72;100119.09;5057711;28;20107;-83
2022/03/25 10:11:22;;;;;;;37.75;22.67;;;;;;;13.25;30.52;100112.97;5054475;28;20132;-84
2022/03/25 10:14:18;;;;;;;40.28;22.65;;;;;;;13.56;30.17;100104.13;5053715;28;20136;-82
2022/03/25 10:16:51;;;;;;;42.70;22.80;;;;;;;13.41;29.37;100040.31;5055033;28;20487;-84
2022/03/25 10:19:21;;;;;;;41.60;22.80;;;;;;;13.71;29.49;100083.91;5054716;28;20511;-86
2022/03/25 10:22:08;;;;;;;46.90;26.23;;;;;;;13.79;29.69;100102.25;5055501;28;20521;-81
2022/03/25 10:24:56;;;;;;;45.95;25.25;;;;;;;13.75;29.61;100084.75;5056016;28;20053;-81
2022/03/25 10:27:28;;;;;;;42.60;23.15;;;;;;;13.81;29.74;100089.97;5064850;28;20072;-79
2022/03/25 10:29:56;;;;;;;36.78;22.13;;;;;;;13.75;29.72;100092.63;5079268;28;20061;-81
2022/03/25 10:32:26;;;;;;;41.78;23.08;;;;;;;13.38;29.59;100048.22;5073177;28;20056;-82
2022/03/25 10:35:09;;;;;;;45.28;23.45;;;;;;;13.68;29.76;100085.66;5058493;28;20506;-82
2022/03/25 10:37:55;;;;;;;49.85;25.27;;;;;;;13.89;29.82;100088.16;5053885;28;20053;-82
2022/03/25 10:40:22;;;;;;;53.20;26.88;;;;;;;13.89;29.68;100092.53;5054154;28;20053;-83
2022/03/25 10:43:06;;;;;;;46.15;25.85;;;;;;;13.62;29.73;100047.22;5053917;28;20517;-80
2022/03/25 10:45:42;;;;;;;42.42;23.90;;;;;;;13.66;29.83;100053.31;5053408;28;20057;-81
2022/03/25 10:48:22;;;;;;;44.90;25.63;;;;;;;13.96;29.93;100081.13;5052150;28;20071;-82
2022/03/25 10:51:10;;;;;;;40.17;24.70;;;;;;;13.99;29.38;100096.84;5054043;28;20140;-82
2022/03/25 10:53:38;;;;;;;45.67;24.52;;;;;;;13.84;29.49;100078.56;5054072;28;20163;-81
2022/03/25 10:56:10;;;;;;;50.55;24.38;;;;;;;13.76;29.27;100069.88;5053622;28;20056;-81
2022/03/25 10:58:38;;;;;;;45.17;25.33;;;;;;;13.76;29.26;100068.13;5054122;28;20395;-81
2022/03/25 11:01:06;;;;;;;44.65;25.02;;;;;;;13.90;29.18;100092.53;5053859;28;20079;-82
2022/03/25 11:03:34;;;;;;;52.05;26.95;;;;;;;13.84;29.01;100073.31;5053998;28;20132;-83
2022/03/25 11:06:01;;;;;;;48.28;27.00;;;;;;;13.75;29.26;100081.28;5052861;28;20049;-84
2022/03/25 11:08:30;;;;;;;68.00;38.22;;;;;;;13.77;29.57;100083.00;5063077;28;20067;-82
2022/03/25 11:10:58;;;;;;;63.00;31.63;;;;;;;13.91;29.40;100085.53;5053907;28;20060;-82
2022/03/25 11:13:26;;;;;;;59.47;29.33;;;;;;;13.79;29.51;100054.09;5065498;28;20230;-82
2022/03/25 11:15:55;;;;;;;54.08;25.80;;;;;;;13.43;29.80;100024.59;5073512;28;20060;-82
2022/03/25 11:18:27;;;;;;;57.63;28.98;;;;;;;13.43;29.57;100061.31;5074172;28;20132;-83
2022/03/25 11:20:58;;;;;;;47.40;25.80;;;;;;;13.19;29.89;100029.03;5076678;28;20044;-82
2022/03/25 11:23:36;;;;;;;49.15;28.33;;;;;;;13.50;29.91;100076.13;5081739;28;20140;-81
2022/03/25 11:26:08;;;;;;;51.17;27.27;;;;;;;13.54;30.25;100079.63;5077336;28;20053;-83